Sigefredo Pacheco, Brazil
Current Conditions -  °F | °C
As of 6:00 AM on Friday 31 Oct 2014 (Local Time) from SBTE Reporting Station
Clear Clear  
Wind Chill: 77°   Ceiling: Unl
Heat Index: 79°   Visibility: 6mi
Dew Point: 68°   Wind: 2mph
Humidity: 74%   Direction: 350°N
Pressure: 29.85"   Gusts: NA
Location:  4.91°S, 41.73°W
Report Text: SBTE 310900Z 35002KT CAVOK 25/20 Q1011
Loading
Personal Weather Stations






























Interactive Weather Map
Tropical Storm Tracking
New forecast layout! Learn more

10-Day Weather Forecast

Advertisements
Track Severe Weather on mobile